sensor_id;sensor_type;location;lat;lon;timestamp;pressure;altitude;pressure_sealevel;temperature;humidity
26775;BME280;14362;51.902;7.626;2023-03-04T00:00:48;101861.00;;;5.38;100.00
26775;BME280;14362;51.902;7.626;2023-03-04T00:04:50;101850.22;;;5.37;100.00
26775;BME280;14362;51.902;7.626;2023-03-04T00:08:51;101863.53;;;5.45;100.00
26775;BME280;14362;51.902;7.626;2023-03-04T00:12:53;101854.97;;;5.41;100.00
26775;BME280;14362;51.902;7.626;2023-03-04T00:16:55;101848.84;;;5.39;100.00
26775;BME280;14362;51.902;7.626;2023-03-04T00:20:57;101852.44;;;5.40;100.00
26775;BME280;14362;51.902;7.626;2023-03-04T00:24:58;101851.63;;;5.39;100.00
26775;BME280;14362;51.902;7.626;2023-03-04T00:29:00;101851.56;;;5.34;100.00
26775;BME280;14362;51.902;7.626;2023-03-04T00:33:03;101849.91;;;5.33;100.00
26775;BME280;14362;51.902;7.626;2023-03-04T00:37:04;101848.56;;;5.36;100.00
26775;BME280;14362;51.902;7.626;2023-03-04T00:41:06;101847.97;;;5.34;100.00
26775;BME280;14362;51.902;7.626;2023-03-04T00:45:08;101842.75;;;5.37;100.00
26775;BME280;14362;51.902;7.626;2023-03-04T00:49:11;101850.78;;;5.39;100.00
26775;BME280;14362;51.902;7.626;2023-03-04T00:53:13;101845.00;;;5.40;100.00
26775;BME280;14362;51.902;7.626;2023-03-04T00:57:14;101841.13;;;5.41;100.00
26775;BME280;14362;51.902;7.626;2023-03-04T01:01:15;101843.56;;;5.38;100.00
26775;BME280;14362;51.902;7.626;2023-03-04T01:05:18;101838.91;;;5.38;100.00
26775;BME280;14362;51.902;7.626;2023-03-04T01:09:20;101838.03;;;5.38;100.00
26775;BME280;14362;51.902;7.626;2023-03-04T01:13:21;101836.69;;;5.40;100.00
26775;BME280;14362;51.902;7.626;2023-03-04T01:17:23;101835.56;;;5.36;100.00
26775;BME280;14362;51.902;7.626;2023-03-04T01:21:25;101827.22;;;5.31;100.00
26775;BME280;14362;51.902;7.626;2023-03-04T01:25:27;101833.88;;;5.35;100.00
26775;BME280;14362;51.902;7.626;2023-03-04T01:29:28;101831.69;;;5.37;100.00
26775;BME280;14362;51.902;7.626;2023-03-04T01:33:30;101833.06;;;5.35;100.00
26775;BME280;14362;51.902;7.626;2023-03-04T01:37:33;101817.16;;;5.52;100.00
26775;BME280;14362;51.902;7.626;2023-03-04T01:41:34;101814.53;;;5.35;100.00
26775;BME280;14362;51.902;7.626;2023-03-04T01:45:36;101813.56;;;5.51;100.00
26775;BME280;14362;51.902;7.626;2023-03-04T01:49:37;101807.38;;;5.39;100.00
26775;BME280;14362;51.902;7.626;2023-03-04T01:53:41;101812.63;;;5.36;100.00
26775;BME280;14362;51.902;7.626;2023-03-04T01:57:43;101804.84;;;5.33;100.00
26775;BME280;14362;51.902;7.626;2023-03-04T02:01:47;101804.28;;;5.31;100.00
26775;BME280;14362;51.902;7.626;2023-03-04T02:05:51;101796.50;;;5.28;100.00
26775;BME280;14362;51.902;7.626;2023-03-04T02:09:54;101799.84;;;5.30;100.00
26775;BME280;14362;51.902;7.626;2023-03-04T02:13:55;101795.69;;;5.27;100.00
26775;BME280;14362;51.902;7.626;2023-03-04T02:17:57;101797.31;;;5.28;100.00
26775;BME280;14362;51.902;7.626;2023-03-04T02:21:58;101786.81;;;5.25;100.00
26775;BME280;14362;51.902;7.626;2023-03-04T02:26:11;101794.03;;;5.26;100.00
26775;BME280;14362;51.902;7.626;2023-03-04T02:30:18;101787.91;;;5.24;100.00
26775;BME280;14362;51.902;7.626;2023-03-04T02:34:22;101778.31;;;5.32;100.00
26775;BME280;14362;51.902;7.626;2023-03-04T02:38:25;101781.03;;;5.27;100.00
26775;BME280;14362;51.902;7.626;2023-03-04T02:42:28;101767.50;;;5.30;100.00
26775;BME280;14362;51.902;7.626;2023-03-04T02:46:29;101771.06;;;5.26;100.00
26775;BME280;14362;51.902;7.626;2023-03-04T02:50:33;101767.50;;;5.30;100.00
26775;BME280;14362;51.902;7.626;2023-03-04T02:54:37;101766.16;;;5.33;100.00
26775;BME280;14362;51.902;7.626;2023-03-04T02:58:40;101758.09;;;5.31;100.00
26775;BME280;14362;51.902;7.626;2023-03-04T03:02:41;101750.09;;;5.30;100.00
26775;BME280;14362;51.902;7.626;2023-03-04T03:06:43;101753.09;;;5.28;100.00
26775;BME280;14362;51.902;7.626;2023-03-04T03:10:45;101755.84;;;5.23;100.00
26775;BME280;14362;51.902;7.626;2023-03-04T03:14:48;101755.09;;;5.33;100.00
26775;BME280;14362;51.902;7.626;2023-03-04T03:18:49;101748.94;;;5.26;100.00
26775;BME280;14362;51.902;7.626;2023-03-04T03:22:50;101744.28;;;5.26;100.00
26775;BME280;14362;51.902;7.626;2023-03-04T03:26:52;101741.50;;;5.26;100.00
26775;BME280;14362;51.902;7.626;2023-03-04T03:30:55;101740.38;;;5.22;100.00
26775;BME280;14362;51.902;7.626;2023-03-04T03:34:56;101743.94;;;5.23;100.00
26775;BME280;14362;51.902;7.626;2023-03-04T03:38:58;101733.75;;;5.23;100.00
26775;BME280;14362;51.902;7.626;2023-03-04T03:42:59;101732.06;;;5.22;100.00
26775;BME280;14362;51.902;7.626;2023-03-04T03:47:02;101745.31;;;5.20;100.00
26775;BME280;14362;51.902;7.626;2023-03-04T03:51:04;101740.94;;;5.24;100.00
26775;BME280;14362;51.902;7.626;2023-03-04T03:55:06;101738.16;;;5.24;100.00
26775;BME280;14362;51.902;7.626;2023-03-04T03:59:07;101739.56;;;5.27;100.00
26775;BME280;14362;51.902;7.626;2023-03-04T04:03:13;101741.50;;;5.26;100.00
26775;BME280;14362;51.902;7.626;2023-03-04T04:07:15;101733.22;;;5.26;100.00
26775;BME280;14362;51.902;7.626;2023-03-04T04:11:16;101741.75;;;5.25;100.00
26775;BME280;14362;51.902;7.626;2023-03-04T04:15:18;101732.94;;;5.28;100.00
26775;BME280;14362;51.902;7.626;2023-03-04T04:19:21;101732.63;;;5.24;100.00
26775;BME280;14362;51.902;7.626;2023-03-04T04:23:22;101727.34;;;5.23;100.00
26775;BME280;14362;51.902;7.626;2023-03-04T04:27:24;101725.69;;;5.22;100.00
26775;BME280;14362;51.902;7.626;2023-03-04T04:31:25;101731.50;;;5.20;100.00
26775;BME280;14362;51.902;7.626;2023-03-04T04:35:29;101729.03;;;5.24;100.00
26775;BME280;14362;51.902;7.626;2023-03-04T04:39:30;101735.66;;;5.23;100.00
26775;BME280;14362;51.902;7.626;2023-03-04T04:43:32;101724.88;;;5.21;100.00
26775;BME280;14362;51.902;7.626;2023-03-04T04:47:33;101719.06;;;5.23;100.00
26775;BME280;14362;51.902;7.626;2023-03-04T04:51:36;101713.53;;;5.18;100.00
26775;BME280;14362;51.902;7.626;2023-03-04T04:55:38;101721.00;;;5.22;100.00
26775;BME280;14362;51.902;7.626;2023-03-04T04:59:39;101722.63;;;5.18;100.00
26775;BME280;14362;51.902;7.626;2023-03-04T05:03:41;101721.00;;;5.22;100.00
26775;BME280;14362;51.902;7.626;2023-03-04T05:07:44;101719.88;;;5.18;100.00
26775;BME280;14362;51.902;7.626;2023-03-04T05:11:45;101717.38;;;5.17;100.00
26775;BME280;14362;51.902;7.626;2023-03-04T05:15:47;101719.06;;;5.18;100.00
26775;BME280;14362;51.902;7.626;2023-03-04T05:19:48;101725.41;;;5.18;100.00
26775;BME280;14362;51.902;7.626;2023-03-04T05:23:51;101723.16;;;5.15;100.00
26775;BME280;14362;51.902;7.626;2023-03-04T05:27:52;101730.34;;;5.16;100.00
26775;BME280;14362;51.902;7.626;2023-03-04T05:31:54;101727.59;;;5.16;100.00
26775;BME280;14362;51.902;7.626;2023-03-04T05:35:55;101722.59;;;5.13;100.00
26775;BME280;14362;51.902;7.626;2023-03-04T05:39:58;101727.03;;;5.14;100.00
26775;BME280;14362;51.902;7.626;2023-03-04T05:44:00;101730.31;;;5.11;100.00
26775;BME280;14362;51.902;7.626;2023-03-04T05:48:01;101725.63;;;5.12;100.00
26775;BME280;14362;51.902;7.626;2023-03-04T05:52:03;101728.63;;;5.10;100.00
26775;BME280;14362;51.902;7.626;2023-03-04T05:56:11;101725.69;;;5.17;100.00
26775;BME280;14362;51.902;7.626;2023-03-04T06:00:14;101738.06;;;5.09;100.00
26775;BME280;14362;51.902;7.626;2023-03-04T06:04:16;101738.59;;;5.06;100.00
26775;BME280;14362;51.902;7.626;2023-03-04T06:08:17;101740.53;;;5.11;100.00
26775;BME280;14362;51.902;7.626;2023-03-04T06:12:21;101743.59;;;5.09;100.00
26775;BME280;14362;51.902;7.626;2023-03-04T06:16:23;101739.91;;;5.04;100.00
26775;BME280;14362;51.902;7.626;2023-03-04T06:20:24;101745.38;;;4.94;100.00
26775;BME280;14362;51.902;7.626;2023-03-04T06:24:26;101746.81;;;5.02;100.00
26775;BME280;14362;51.902;7.626;2023-03-04T06:28:29;101740.16;;;4.98;100.00
26775;BME280;14362;51.902;7.626;2023-03-04T06:32:31;101739.91;;;4.99;100.00
26775;BME280;14362;51.902;7.626;2023-03-04T06:36:33;101736.03;;;5.00;100.00
26775;BME280;14362;51.902;7.626;2023-03-04T06:40:34;101738.81;;;5.05;100.00
26775;BME280;14362;51.902;7.626;2023-03-04T06:44:37;101747.63;;;5.02;100.00
26775;BME280;14362;51.902;7.626;2023-03-04T06:48:38;101752.41;;;5.06;100.00
26775;BME280;14362;51.902;7.626;2023-03-04T06:52:40;101755.41;;;5.05;100.00
26775;BME280;14362;51.902;7.626;2023-03-04T06:56:41;101762.34;;;5.07;100.00
26775;BME280;14362;51.902;7.626;2023-03-04T07:00:44;101768.47;;;5.14;100.00
26775;BME280;14362;51.902;7.626;2023-03-04T07:04:46;101765.13;;;5.12;100.00
26775;BME280;14362;51.902;7.626;2023-03-04T07:08:48;101769.91;;;5.22;100.00
26775;BME280;14362;51.902;7.626;2023-03-04T07:12:49;101761.66;;;5.27;100.00
26775;BME280;14362;51.902;7.626;2023-03-04T07:16:52;101759.47;;;5.29;100.00
26775;BME280;14362;51.902;7.626;2023-03-04T07:20:53;101759.25;;;5.35;100.00
26775;BME280;14362;51.902;7.626;2023-03-04T07:24:55;101759.00;;;5.37;100.00
26775;BME280;14362;51.902;7.626;2023-03-04T07:28:56;101764.59;;;5.47;100.00
26775;BME280;14362;51.902;7.626;2023-03-04T07:33:00;101762.44;;;5.54;100.00
26775;BME280;14362;51.902;7.626;2023-03-04T07:37:02;101756.09;;;5.58;100.00
26775;BME280;14362;51.902;7.626;2023-03-04T07:41:04;101756.91;;;5.59;100.00
26775;BME280;14362;51.902;7.626;2023-03-04T07:45:06;101752.31;;;5.74;100.00
26775;BME280;14362;51.902;7.626;2023-03-04T07:49:12;101756.47;;;5.77;100.00
26775;BME280;14362;51.902;7.626;2023-03-04T07:53:13;101753.75;;;5.82;100.00
26775;BME280;14362;51.902;7.626;2023-03-04T07:57:15;101754.69;;;5.97;100.00
26775;BME280;14362;51.902;7.626;2023-03-04T08:01:18;101763.78;;;5.88;100.00
26775;BME280;14362;51.902;7.626;2023-03-04T08:05:21;101755.59;;;5.71;100.00
26775;BME280;14362;51.902;7.626;2023-03-04T08:09:23;101760.97;;;5.83;100.00
26775;BME280;14362;51.902;7.626;2023-03-04T08:13:24;101763.34;;;5.69;100.00
26775;BME280;14362;51.902;7.626;2023-03-04T08:17:26;101768.91;;;5.74;100.00
26775;BME280;14362;51.902;7.626;2023-03-04T08:21:30;101760.63;;;5.74;100.00
26775;BME280;14362;51.902;7.626;2023-03-04T08:25:32;101781.91;;;5.74;100.00
26775;BME280;14362;51.902;7.626;2023-03-04T08:29:33;101769.44;;;5.71;100.00
26775;BME280;14362;51.902;7.626;2023-03-04T08:33:35;101778.59;;;5.77;100.00
26775;BME280;14362;51.902;7.626;2023-03-04T08:37:37;101775.22;;;5.65;100.00
26775;BME280;14362;51.902;7.626;2023-03-04T08:41:39;101776.59;;;5.62;100.00
26775;BME280;14362;51.902;7.626;2023-03-04T08:45:40;101778.81;;;5.65;100.00
26775;BME280;14362;51.902;7.626;2023-03-04T08:49:42;101785.47;;;5.69;100.00
26775;BME280;14362;51.902;7.626;2023-03-04T08:53:45;101784.66;;;5.69;100.00
26775;BME280;14362;51.902;7.626;2023-03-04T08:57:46;101778.16;;;5.90;100.00
26775;BME280;14362;51.902;7.626;2023-03-04T09:01:48;101778.41;;;5.83;100.00
26775;BME280;14362;51.902;7.626;2023-03-04T09:05:49;101779.50;;;5.82;100.00
26775;BME280;14362;51.902;7.626;2023-03-04T09:09:52;101785.63;;;5.89;100.00
26775;BME280;14362;51.902;7.626;2023-03-04T09:13:53;101768.28;;;6.04;100.00
26775;BME280;14362;51.902;7.626;2023-03-04T09:17:55;101767.19;;;6.09;100.00
26775;BME280;14362;51.902;7.626;2023-03-04T09:21:56;101767.81;;;6.26;100.00
26775;BME280;14362;51.902;7.626;2023-03-04T09:26:00;101766.47;;;6.34;100.00
26775;BME280;14362;51.902;7.626;2023-03-04T09:30:03;101762.03;;;6.33;100.00
26775;BME280;14362;51.902;7.626;2023-03-04T09:34:04;101757.88;;;6.30;100.00
26775;BME280;14362;51.902;7.626;2023-03-04T09:38:06;101760.38;;;6.42;100.00
26775;BME280;14362;51.902;7.626;2023-03-04T09:42:13;101763.97;;;6.37;100.00
26775;BME280;14362;51.902;7.626;2023-03-04T09:46:24;101759.81;;;6.35;100.00
26775;BME280;14362;51.902;7.626;2023-03-04T09:50:32;101754.28;;;6.35;100.00
26775;BME280;14362;51.902;7.626;2023-03-04T09:54:55;101758.44;;;6.37;100.00
26775;BME280;14362;51.902;7.626;2023-03-04T09:59:08;101761.78;;;6.44;100.00
26775;BME280;14362;51.902;7.626;2023-03-04T10:03:15;101750.16;;;6.42;100.00
26775;BME280;14362;51.902;7.626;2023-03-04T10:07:22;101747.09;;;6.44;100.00
26775;BME280;14362;51.902;7.626;2023-03-04T10:11:26;101750.16;;;6.42;100.00
26775;BME280;14362;51.902;7.626;2023-03-04T10:15:33;101747.44;;;6.62;100.00
26775;BME280;14362;51.902;7.626;2023-03-04T10:19:44;101746.34;;;6.78;100.00
26775;BME280;14362;51.902;7.626;2023-03-04T10:23:48;101744.16;;;6.85;100.00
26775;BME280;14362;51.902;7.626;2023-03-04T10:27:53;101747.75;;;6.91;100.00
26775;BME280;14362;51.902;7.626;2023-03-04T10:31:56;101741.94;;;7.07;100.00
26775;BME280;14362;51.902;7.626;2023-03-04T10:36:01;101735.84;;;7.15;100.00
26775;BME280;14362;51.902;7.626;2023-03-04T10:40:03;101739.69;;;7.29;100.00
26775;BME280;14362;51.902;7.626;2023-03-04T10:44:14;101726.13;;;7.32;100.00
26775;BME280;14362;51.902;7.626;2023-03-04T10:48:19;101726.13;;;7.27;100.00
26775;BME280;14362;51.902;7.626;2023-03-04T10:52:27;101719.44;;;7.43;100.00
26775;BME280;14362;51.902;7.626;2023-03-04T10:56:31;101713.63;;;7.40;100.00
26775;BME280;14362;51.902;7.626;2023-03-04T11:00:35;101714.47;;;7.45;100.00
26775;BME280;14362;51.902;7.626;2023-03-04T11:04:39;101713.63;;;7.30;100.00
26775;BME280;14362;51.902;7.626;2023-03-04T11:08:41;101716.69;;;7.28;100.00
26775;BME280;14362;51.902;7.626;2023-03-04T11:12:47;101725.56;;;7.20;100.00
26775;BME280;14362;51.902;7.626;2023-03-04T11:16:54;101718.94;;;7.16;100.00
26775;BME280;14362;51.902;7.626;2023-03-04T11:20:57;101711.16;;;7.33;100.00
26775;BME280;14362;51.902;7.626;2023-03-04T11:25:02;101712.50;;;7.56;100.00
26775;BME280;14362;51.902;7.626;2023-03-04T11:29:09;101705.28;;;7.50;100.00
26775;BME280;14362;51.902;7.626;2023-03-04T11:33:23;101695.28;;;7.49;100.00
26775;BME280;14362;51.902;7.626;2023-03-04T11:37:30;101701.72;;;7.34;100.00
26775;BME280;14362;51.902;7.626;2023-03-04T11:41:37;101695.88;;;7.36;100.00
26775;BME280;14362;51.902;7.626;2023-03-04T11:46:01;101702.84;;;7.13;100.00
26775;BME280;14362;51.902;7.626;2023-03-04T11:50:28;101702.03;;;7.03;100.00
26775;BME280;14362;51.902;7.626;2023-03-04T11:54:34;101691.22;;;6.97;100.00
26775;BME280;14362;51.902;7.626;2023-03-04T11:58:58;101694.81;;;6.72;100.00
26775;BME280;14362;51.902;7.626;2023-03-04T12:03:17;101705.06;;;6.82;100.00
26775;BME280;14362;51.902;7.626;2023-03-04T12:07:36;101694.81;;;6.67;100.00
26775;BME280;14362;51.902;7.626;2023-03-04T12:11:51;101684.84;;;6.66;100.00
26775;BME280;14362;51.902;7.626;2023-03-04T12:16:09;101680.13;;;6.87;100.00
26775;BME280;14362;51.902;7.626;2023-03-04T12:20:30;101670.44;;;6.99;100.00
26775;BME280;14362;51.902;7.626;2023-03-04T12:24:57;101668.47;;;7.05;100.00
26775;BME280;14362;51.902;7.626;2023-03-04T12:29:09;101656.28;;;7.06;100.00
26775;BME280;14362;51.902;7.626;2023-03-04T12:33:22;101636.28;;;7.23;100.00
26775;BME280;14362;51.902;7.626;2023-03-04T12:37:39;101638.47;;;7.41;100.00
26775;BME280;14362;51.902;7.626;2023-03-04T12:41:47;101641.16;;;7.66;100.00
26775;BME280;14362;51.902;7.626;2023-03-04T12:45:57;101624.91;;;7.98;100.00
26775;BME280;14362;51.902;7.626;2023-03-04T12:50:29;101625.47;;;7.95;100.00
26775;BME280;14362;51.902;7.626;2023-03-04T12:54:36;101623.16;;;8.12;100.00
26775;BME280;14362;51.902;7.626;2023-03-04T12:58:39;101612.34;;;8.06;100.00
26775;BME280;14362;51.902;7.626;2023-03-04T13:02:50;101614.56;;;8.08;100.00
26775;BME280;14362;51.902;7.626;2023-03-04T13:07:07;101609.22;;;8.27;100.00
26775;BME280;14362;51.902;7.626;2023-03-04T13:11:38;101613.13;;;8.26;100.00
26775;BME280;14362;51.902;7.626;2023-03-04T13:15:41;101602.84;;;8.60;100.00
26775;BME280;14362;51.902;7.626;2023-03-04T13:19:46;101586.47;;;8.58;100.00
26775;BME280;14362;51.902;7.626;2023-03-04T13:23:48;101596.38;;;8.36;100.00
26775;BME280;14362;51.902;7.626;2023-03-04T13:28:14;101598.13;;;8.27;100.00
26775;BME280;14362;51.902;7.626;2023-03-04T13:32:35;101586.56;;;8.05;100.00
26775;BME280;14362;51.902;7.626;2023-03-04T13:36:56;101582.94;;;8.05;100.00
26775;BME280;14362;51.902;7.626;2023-03-04T13:41:09;101585.13;;;8.12;100.00
26775;BME280;14362;51.902;7.626;2023-03-04T13:45:30;101561.53;;;8.48;100.00
26775;BME280;14362;51.902;7.626;2023-03-04T13:49:32;101568.00;;;8.39;100.00
26775;BME280;14362;51.902;7.626;2023-03-04T13:53:45;101579.25;;;8.24;100.00
26775;BME280;14362;51.902;7.626;2023-03-04T13:57:49;101571.91;;;7.95;100.00
26775;BME280;14362;51.902;7.626;2023-03-04T14:01:56;101569.19;;;7.85;100.00
26775;BME280;14362;51.902;7.626;2023-03-04T14:06:15;101565.28;;;7.86;100.00
26775;BME280;14362;51.902;7.626;2023-03-04T14:10:23;101572.84;;;7.75;100.00
26775;BME280;14362;51.902;7.626;2023-03-04T14:14:26;101571.31;;;7.54;100.00
26775;BME280;14362;51.902;7.626;2023-03-04T14:18:29;101560.81;;;7.41;100.00
26775;BME280;14362;51.902;7.626;2023-03-04T14:22:32;101567.75;;;7.44;100.00
26775;BME280;14362;51.902;7.626;2023-03-04T14:26:35;101561.31;;;7.53;100.00
26775;BME280;14362;51.902;7.626;2023-03-04T14:30:37;101561.03;;;7.55;100.00
26775;BME280;14362;51.902;7.626;2023-03-04T14:34:40;101561.59;;;7.47;100.00
26775;BME280;14362;51.902;7.626;2023-03-04T14:38:42;101561.84;;;7.55;100.00
26775;BME280;14362;51.902;7.626;2023-03-04T14:42:46;101550.19;;;7.58;100.00
26775;BME280;14362;51.902;7.626;2023-03-04T14:46:50;101550.81;;;7.40;100.00
26775;BME280;14362;51.902;7.626;2023-03-04T14:50:54;101543.28;;;7.51;100.00
26775;BME280;14362;51.902;7.626;2023-03-04T14:55:02;101545.81;;;7.42;100.00
26775;BME280;14362;51.902;7.626;2023-03-04T14:59:11;101543.59;;;7.49;100.00
26775;BME280;14362;51.902;7.626;2023-03-04T15:03:19;101534.72;;;7.47;100.00
26775;BME280;14362;51.902;7.626;2023-03-04T15:07:27;101542.72;;;7.49;100.00
26775;BME280;14362;51.902;7.626;2023-03-04T15:11:32;101545.19;;;7.60;100.00
26775;BME280;14362;51.902;7.626;2023-03-04T15:15:46;101534.31;;;7.69;100.00
26775;BME280;14362;51.902;7.626;2023-03-04T15:19:57;101532.97;;;7.61;100.00
26775;BME280;14362;51.902;7.626;2023-03-04T15:23:59;101534.28;;;7.74;100.00
26775;BME280;14362;51.902;7.626;2023-03-04T15:28:02;101530.50;;;7.60;100.00
26775;BME280;14362;51.902;7.626;2023-03-04T15:32:05;101524.00;;;7.74;100.00
26775;BME280;14362;51.902;7.626;2023-03-04T15:36:11;101527.66;;;7.65;100.00
26775;BME280;14362;51.902;7.626;2023-03-04T15:40:21;101522.97;;;7.60;100.00
26775;BME280;14362;51.902;7.626;2023-03-04T15:44:24;101526.94;;;7.44;100.00
26775;BME280;14362;51.902;7.626;2023-03-04T15:48:27;101528.88;;;7.49;100.00
26775;BME280;14362;51.902;7.626;2023-03-04T15:52:28;101520.84;;;7.47;100.00
26775;BME280;14362;51.902;7.626;2023-03-04T15:56:33;101520.88;;;7.37;100.00
26775;BME280;14362;51.902;7.626;2023-03-04T16:00:34;101529.78;;;7.34;100.00
26775;BME280;14362;51.902;7.626;2023-03-04T16:04:37;101520.91;;;7.32;100.00
26775;BME280;14362;51.902;7.626;2023-03-04T16:08:39;101521.19;;;7.31;100.00
26775;BME280;14362;51.902;7.626;2023-03-04T16:12:42;101520.94;;;7.27;100.00
26775;BME280;14362;51.902;7.626;2023-03-04T16:16:43;101525.63;;;7.27;100.00
26775;BME280;14362;51.902;7.626;2023-03-04T16:20:48;101520.69;;;7.24;100.00
26775;BME280;14362;51.902;7.626;2023-03-04T16:24:50;101508.47;;;7.25;100.00
26775;BME280;14362;51.902;7.626;2023-03-04T16:28:53;101525.69;;;7.12;100.00
26775;BME280;14362;51.902;7.626;2023-03-04T16:32:55;101533.75;;;7.08;100.00
26775;BME280;14362;51.902;7.626;2023-03-04T16:36:58;101531.34;;;6.72;100.00
26775;BME280;14362;51.902;7.626;2023-03-04T16:41:04;101535.81;;;6.63;100.00
26775;BME280;14362;51.902;7.626;2023-03-04T16:45:15;101530.53;;;6.47;100.00
26775;BME280;14362;51.902;7.626;2023-03-04T16:49:17;101534.69;;;6.34;100.00
26775;BME280;14362;51.902;7.626;2023-03-04T16:53:25;101541.94;;;6.30;100.00
26775;BME280;14362;51.902;7.626;2023-03-04T16:57:29;101544.13;;;6.28;100.00
26775;BME280;14362;51.902;7.626;2023-03-04T17:01:30;101548.84;;;6.33;100.00
26775;BME280;14362;51.902;7.626;2023-03-04T17:05:33;101557.69;;;6.20;100.00
26775;BME280;14362;51.902;7.626;2023-03-04T17:09:36;101556.28;;;6.03;100.00
26775;BME280;14362;51.902;7.626;2023-03-04T17:13:37;101551.88;;;6.07;100.00
26775;BME280;14362;51.902;7.626;2023-03-04T17:17:40;101554.91;;;5.95;100.00
26775;BME280;14362;51.902;7.626;2023-03-04T17:21:42;101557.13;;;5.98;100.00
26775;BME280;14362;51.902;7.626;2023-03-04T17:25:44;101553.81;;;6.01;100.00
26775;BME280;14362;51.902;7.626;2023-03-04T17:29:46;101560.72;;;6.04;100.00
26775;BME280;14362;51.902;7.626;2023-03-04T17:33:48;101550.75;;;5.93;100.00
26775;BME280;14362;51.902;7.626;2023-03-04T17:37:49;101568.72;;;5.95;100.00
26775;BME280;14362;51.902;7.626;2023-03-04T17:41:52;101567.88;;;5.85;100.00
26775;BME280;14362;51.902;7.626;2023-03-04T17:46:01;101566.78;;;5.86;100.00
26775;BME280;14362;51.902;7.626;2023-03-04T17:50:03;101557.09;;;5.88;100.00
26775;BME280;14362;51.902;7.626;2023-03-04T17:54:06;101564.81;;;5.86;100.00
26775;BME280;14362;51.902;7.626;2023-03-04T17:58:10;101549.63;;;5.89;100.00
26775;BME280;14362;51.902;7.626;2023-03-04T18:02:13;101556.00;;;5.84;100.00
26775;BME280;14362;51.902;7.626;2023-03-04T18:06:15;101549.91;;;5.82;100.00
26775;BME280;14362;51.902;7.626;2023-03-04T18:10:17;101548.78;;;5.88;100.00
26775;BME280;14362;51.902;7.626;2023-03-04T18:14:20;101552.13;;;5.90;100.00
26775;BME280;14362;51.902;7.626;2023-03-04T18:18:22;101555.44;;;5.92;100.00
26775;BME280;14362;51.902;7.626;2023-03-04T18:22:23;101560.34;;;5.65;100.00
26775;BME280;14362;51.902;7.626;2023-03-04T18:26:25;101569.94;;;5.48;100.00
26775;BME280;14362;51.902;7.626;2023-03-04T18:30:28;101566.63;;;5.46;100.00
26775;BME280;14362;51.902;7.626;2023-03-04T18:34:29;101566.88;;;5.39;100.00
26775;BME280;14362;51.902;7.626;2023-03-04T18:38:31;101571.50;;;5.24;100.00
26775;BME280;14362;51.902;7.626;2023-03-04T18:42:32;101563.47;;;5.22;100.00
26775;BME280;14362;51.902;7.626;2023-03-04T18:46:40;101574.25;;;5.24;100.00
26775;BME280;14362;51.902;7.626;2023-03-04T18:50:42;101562.41;;;5.33;100.00
26775;BME280;14362;51.902;7.626;2023-03-04T18:54:44;101576.44;;;5.22;100.00
26775;BME280;14362;51.902;7.626;2023-03-04T18:58:46;101581.66;;;5.08;100.00
26775;BME280;14362;51.902;7.626;2023-03-04T19:02:53;101580.28;;;5.11;100.00
26775;BME280;14362;51.902;7.626;2023-03-04T19:06:56;101583.88;;;5.16;100.00
26775;BME280;14362;51.902;7.626;2023-03-04T19:10:58;101584.41;;;5.13;100.00
26775;BME280;14362;51.902;7.626;2023-03-04T19:14:59;101574.75;;;5.11;100.00
26775;BME280;14362;51.902;7.626;2023-03-04T19:19:03;101589.13;;;5.13;100.00
26775;BME280;14362;51.902;7.626;2023-03-04T19:23:04;101584.13;;;5.10;100.00
26775;BME280;14362;51.902;7.626;2023-03-04T19:27:08;101580.28;;;5.11;100.00
26775;BME280;14362;51.902;7.626;2023-03-04T19:31:10;101582.19;;;5.05;100.00
26775;BME280;14362;51.902;7.626;2023-03-04T19:35:13;101585.44;;;4.98;100.00
26775;BME280;14362;51.902;7.626;2023-03-04T19:39:14;101596.25;;;5.04;100.00
26775;BME280;14362;51.902;7.626;2023-03-04T19:43:17;101591.25;;;5.01;100.00
26775;BME280;14362;51.902;7.626;2023-03-04T19:47:19;101587.16;;;5.03;100.00
26775;BME280;14362;51.902;7.626;2023-03-04T19:51:23;101592.38;;;5.05;100.00
26775;BME280;14362;51.902;7.626;2023-03-04T19:55:26;101591.84;;;5.08;100.00
26775;BME280;14362;51.902;7.626;2023-03-04T19:59:27;101593.19;;;5.01;100.00
26775;BME280;14362;51.902;7.626;2023-03-04T20:03:28;101591.31;;;5.11;100.00
26775;BME280;14362;51.902;7.626;2023-03-04T20:07:31;101595.19;;;5.10;100.00
26775;BME280;14362;51.902;7.626;2023-03-04T20:11:33;101586.22;;;4.88;100.00
26775;BME280;14362;51.902;7.626;2023-03-04T20:15:34;101585.38;;;4.88;100.00
26775;BME280;14362;51.902;7.626;2023-03-04T20:19:37;101590.84;;;4.78;100.00
26775;BME280;14362;51.902;7.626;2023-03-04T20:23:39;101591.91;;;4.72;100.00
26775;BME280;14362;51.902;7.626;2023-03-04T20:27:41;101584.50;;;4.77;100.00
26775;BME280;14362;51.902;7.626;2023-03-04T20:31:42;101583.63;;;4.77;100.00
26775;BME280;14362;51.902;7.626;2023-03-04T20:35:45;101581.97;;;4.76;100.00
26775;BME280;14362;51.902;7.626;2023-03-04T20:39:48;101590.59;;;4.79;100.00
26775;BME280;14362;51.902;7.626;2023-03-04T20:43:49;101591.13;;;4.76;100.00
26775;BME280;14362;51.902;7.626;2023-03-04T20:47:51;101590.00;;;4.77;100.00
26775;BME280;14362;51.902;7.626;2023-03-04T20:51:54;101594.44;;;4.78;100.00
26775;BME280;14362;51.902;7.626;2023-03-04T20:56:02;101591.59;;;4.68;100.00
26775;BME280;14362;51.902;7.626;2023-03-04T21:00:05;101590.78;;;4.73;100.00
26775;BME280;14362;51.902;7.626;2023-03-04T21:04:08;101584.72;;;4.71;100.00
26775;BME280;14362;51.902;7.626;2023-03-04T21:08:09;101578.34;;;4.70;100.00
26775;BME280;14362;51.902;7.626;2023-03-04T21:12:13;101582.50;;;4.68;100.00
26775;BME280;14362;51.902;7.626;2023-03-04T21:16:15;101581.41;;;4.69;100.00